createdAt,value
2024-01-09T00:01:12.894Z,62.80
2024-01-09T00:06:16.713Z,66.60
2024-01-09T00:11:21.464Z,65.80
2024-01-09T00:16:24.772Z,63.20
2024-01-09T00:21:27.627Z,63.40
2024-01-09T00:26:32.213Z,59.60
2024-01-09T00:31:35.127Z,57.60
2024-01-09T00:36:43.422Z,61.20
2024-01-09T00:41:48.503Z,61.40
2024-01-09T00:46:51.481Z,61.60
2024-01-09T00:51:54.266Z,64.00
2024-01-09T00:56:58.434Z,60.20
2024-01-09T01:02:01.337Z,61.60
2024-01-09T01:07:04.393Z,59.60
2024-01-09T01:12:08.825Z,61.80
2024-01-09T01:17:11.719Z,57.80
2024-01-09T01:22:14.542Z,58.40
2024-01-09T01:27:18.694Z,62.00
2024-01-09T01:32:21.687Z,55.20
2024-01-09T01:37:24.683Z,60.20
2024-01-09T01:42:28.866Z,61.60
2024-01-09T01:47:31.855Z,60.00
2024-01-09T01:52:34.819Z,54.00
2024-01-09T01:57:40.162Z,54.20
2024-01-09T02:02:47.054Z,58.40
2024-01-09T02:07:51.379Z,54.40
2024-01-09T02:12:55.581Z,58.80
2024-01-09T02:17:58.632Z,55.00
2024-01-09T02:23:01.803Z,53.40
2024-01-09T02:28:13.135Z,55.80
2024-01-09T02:33:17.878Z,52.00
2024-01-09T02:38:22.603Z,58.80
2024-01-09T02:43:25.379Z,54.60
2024-01-09T02:48:29.749Z,54.60
2024-01-09T02:53:32.703Z,49.40
2024-01-09T02:58:35.886Z,52.00
2024-01-09T03:03:40.108Z,52.60
2024-01-09T03:08:42.973Z,50.20
2024-01-09T03:13:45.792Z,53.20
2024-01-09T03:18:50.067Z,54.80
2024-01-09T03:23:52.942Z,54.80
2024-01-09T03:28:55.828Z,47.80
2024-01-09T03:34:00.172Z,50.20
2024-01-09T03:39:05.346Z,50.00
2024-01-09T03:44:08.160Z,50.00
2024-01-09T03:49:13.490Z,55.20
2024-01-09T03:54:16.334Z,52.80
2024-01-09T03:59:19.194Z,52.40
2024-01-09T04:04:23.856Z,49.80
2024-01-09T04:09:27.208Z,50.20
2024-01-09T04:14:30.168Z,47.40
2024-01-09T04:19:34.411Z,49.80
2024-01-09T04:24:37.261Z,49.20
2024-01-09T04:29:40.080Z,46.80
2024-01-09T04:34:44.420Z,45.00
2024-01-09T04:39:47.311Z,45.20
2024-01-09T04:44:50.227Z,42.20
2024-01-09T04:49:54.585Z,44.00
2024-01-09T04:54:57.415Z,44.00
2024-01-09T05:00:00.524Z,39.40
2024-01-09T05:05:05.657Z,41.80
2024-01-09T05:10:09.345Z,39.00
2024-01-09T05:15:12.196Z,37.20
2024-01-09T05:20:16.490Z,39.00
2024-01-09T05:25:19.393Z,36.60
2024-01-09T05:30:22.235Z,38.80
2024-01-09T05:35:26.576Z,34.60
2024-01-09T05:40:29.539Z,36.20
2024-01-09T05:45:32.467Z,34.20
2024-01-09T05:50:36.715Z,32.60
2024-01-09T05:55:39.640Z,35.40
2024-01-09T06:00:42.545Z,39.60
2024-01-09T06:05:46.894Z,29.60
2024-01-09T06:10:49.786Z,30.20
2024-01-09T06:15:52.631Z,29.80
2024-01-09T06:20:57.081Z,34.60
2024-01-09T06:26:00.739Z,32.20
2024-01-09T06:31:03.860Z,28.80
2024-01-09T06:36:08.729Z,31.60
2024-01-09T06:41:12.162Z,36.80
2024-01-09T06:46:15.063Z,29.00
2024-01-09T06:51:19.472Z,27.60
2024-01-09T06:56:22.531Z,31.80
2024-01-09T07:01:25.450Z,31.40
2024-01-09T07:06:30.011Z,31.60
2024-01-09T07:11:32.983Z,34.80
2024-01-09T07:16:38.182Z,26.80
2024-01-09T07:21:43.337Z,29.20
2024-01-09T07:26:46.228Z,28.60
2024-01-09T07:31:49.252Z,27.40
2024-01-09T07:36:53.432Z,28.80
2024-01-09T07:41:56.354Z,27.75
2024-01-09T07:46:59.190Z,27.00
2024-01-09T07:52:03.713Z,28.20
2024-01-09T07:57:15.947Z,46.60
2024-01-09T08:02:24.538Z,48.60
2024-01-09T08:07:28.730Z,46.80
2024-01-09T08:12:32.774Z,43.40
2024-01-09T08:17:35.810Z,43.20
2024-01-09T08:22:40.390Z,41.40
2024-01-09T08:27:43.373Z,36.00
2024-01-09T08:32:46.505Z,34.60
2024-01-09T08:37:50.764Z,36.40
2024-01-09T08:42:53.808Z,35.40
2024-01-09T08:47:56.699Z,31.60
2024-01-09T08:53:00.892Z,31.80
2024-01-09T08:58:03.822Z,30.20
2024-01-09T09:03:06.861Z,29.80
2024-01-09T09:08:11.488Z,28.20
2024-01-09T09:13:14.641Z,25.80
2024-01-09T09:18:17.664Z,28.40
2024-01-09T09:23:21.961Z,27.00
2024-01-09T09:28:27.279Z,20.75
2024-01-09T09:33:34.876Z,22.60
2024-01-09T09:38:39.190Z,29.00
2024-01-09T09:43:51.105Z,26.60
2024-01-09T09:48:56.024Z,27.20
2024-01-09T09:54:03.625Z,23.40
2024-01-09T09:59:06.685Z,24.40
2024-01-09T10:04:27.835Z,22.40
2024-01-09T10:09:36.184Z,24.75
2024-01-09T10:14:40.756Z,26.60
2024-01-09T10:19:45.266Z,22.40
2024-01-09T10:24:49.545Z,27.20
2024-01-09T10:29:52.572Z,25.80
2024-01-09T10:34:55.557Z,25.50
2024-01-09T10:40:00.339Z,26.60
2024-01-09T10:45:03.926Z,19.50
2024-01-09T10:50:09.328Z,24.00
2024-01-09T10:55:14.409Z,21.50
2024-01-09T11:00:17.756Z,25.00
2024-01-09T11:05:20.867Z,22.25
2024-01-09T11:10:26.414Z,25.00
2024-01-09T11:15:34.503Z,22.00
2024-01-09T11:20:37.522Z,19.50
2024-01-09T11:25:41.922Z,24.75
2024-01-09T11:30:45.923Z,23.75
2024-01-09T11:35:50.539Z,23.00
2024-01-09T11:40:56.588Z,23.50
2024-01-09T11:45:59.867Z,23.00
2024-01-09T11:51:03.245Z,26.00
2024-01-09T11:56:12.099Z,23.00
2024-01-09T12:01:15.038Z,18.75
2024-01-09T12:06:18.653Z,18.25
2024-01-09T12:11:23.138Z,19.00
2024-01-09T12:16:26.270Z,22.25
2024-01-09T12:21:30.992Z,22.75
2024-01-09T12:26:36.218Z,22.75
2024-01-09T12:31:39.171Z,23.75
2024-01-09T12:36:42.063Z,19.25
2024-01-09T12:41:46.459Z,20.50
2024-01-09T12:46:49.990Z,24.25
2024-01-09T12:51:56.209Z,21.00
2024-01-09T12:57:01.712Z,19.25
2024-01-09T13:02:04.955Z,20.50
2024-01-09T13:07:07.869Z,22.75
2024-01-09T13:12:14.827Z,53.20
2024-01-09T13:17:20.661Z,50.40
2024-01-09T13:27:31.266Z,144.40
2024-01-09T13:32:34.189Z,173.40
2024-01-09T13:37:37.102Z,181.00
2024-01-09T13:42:41.496Z,196.40
2024-01-09T13:47:45.225Z,246.00
2024-01-09T13:52:48.238Z,276.33
2024-01-09T13:57:53.431Z,287.00
2024-01-09T14:02:58.010Z,265.67
2024-01-09T14:08:00.924Z,231.00
2024-01-09T14:13:05.401Z,220.00
2024-01-09T14:18:09.359Z,207.00
2024-01-09T14:23:12.465Z,183.60
2024-01-09T14:28:16.917Z,185.40
2024-01-09T14:33:19.900Z,188.60
2024-01-09T14:38:22.816Z,180.40
2024-01-09T14:43:27.125Z,177.80
2024-01-09T14:48:30.101Z,175.80
2024-01-09T14:53:33.597Z,176.20
2024-01-09T14:58:37.925Z,177.60
2024-01-09T15:03:43.470Z,175.00
2024-01-09T15:08:46.318Z,163.20
2024-01-09T15:13:50.568Z,162.00
2024-01-09T15:18:53.454Z,153.60
2024-01-09T15:23:56.293Z,159.80
2024-01-09T15:29:00.609Z,157.20
2024-01-09T15:34:05.037Z,160.40
2024-01-09T15:39:07.917Z,155.60
2024-01-09T15:44:13.165Z,157.40
2024-01-09T15:49:16.354Z,162.80
2024-01-09T15:54:20.746Z,151.20
2024-01-09T15:59:25.200Z,146.00
2024-01-09T16:04:30.032Z,142.60
2024-01-09T16:09:32.893Z,141.60
2024-01-09T16:14:37.970Z,134.20
2024-01-09T16:19:41.282Z,135.40
2024-01-09T16:24:44.654Z,131.20
2024-01-09T16:29:48.902Z,121.80
2024-01-09T16:34:52.317Z,131.80
2024-01-09T16:39:57.242Z,126.00
2024-01-09T16:45:01.456Z,118.60
2024-01-09T16:50:05.699Z,115.80
2024-01-09T16:55:12.424Z,120.20
2024-01-09T17:00:17.871Z,123.20
2024-01-09T17:05:21.211Z,121.00
2024-01-09T17:10:24.240Z,119.20
2024-01-09T17:15:28.760Z,108.00
2024-01-09T17:20:31.677Z,114.00
2024-01-09T17:25:34.528Z,110.80
2024-01-09T17:30:38.775Z,105.60
2024-01-09T17:35:41.657Z,115.00
2024-01-09T17:40:44.674Z,104.80
2024-01-09T17:45:49.039Z,101.80
2024-01-09T17:50:52.103Z,101.80
2024-01-09T17:55:54.959Z,94.80
2024-01-09T18:00:59.293Z,88.40
2024-01-09T18:06:02.799Z,91.40
2024-01-09T18:11:05.976Z,80.20
2024-01-09T18:16:13.080Z,88.00
2024-01-09T18:21:23.714Z,89.20
2024-01-09T18:26:26.947Z,73.80
2024-01-09T18:31:31.204Z,74.60
2024-01-09T18:36:38.887Z,76.00
2024-01-09T18:41:42.724Z,73.00
2024-01-09T18:46:47.298Z,70.20
2024-01-09T18:51:50.269Z,73.20
2024-01-09T18:56:53.286Z,67.60
2024-01-09T19:01:58.654Z,70.60
2024-01-09T19:07:01.792Z,70.00
2024-01-09T19:12:06.132Z,69.40
2024-01-09T19:17:10.395Z,65.40
2024-01-09T19:22:13.443Z,61.80
2024-01-09T19:27:16.623Z,68.20
2024-01-09T19:32:22.085Z,67.60
2024-01-09T19:37:25.096Z,64.00
2024-01-09T19:42:28.173Z,66.40
2024-01-09T19:47:32.596Z,66.80
2024-01-09T19:52:35.631Z,62.00
2024-01-09T19:57:38.622Z,60.40
2024-01-09T20:02:43.106Z,65.20
2024-01-09T20:07:46.146Z,62.60
2024-01-09T20:12:50.148Z,59.40
2024-01-09T20:17:55.512Z,59.00
2024-01-09T20:22:58.440Z,62.40
2024-01-09T20:28:01.377Z,61.20
2024-01-09T20:33:06.776Z,62.80
2024-01-09T20:38:09.961Z,57.80
2024-01-09T20:43:13.329Z,55.40
2024-01-09T20:48:17.733Z,60.60
2024-01-09T20:53:20.716Z,56.40
2024-01-09T20:58:24.879Z,58.00
2024-01-09T21:03:29.786Z,57.20
2024-01-09T21:08:32.555Z,58.20
2024-01-09T21:13:35.452Z,56.80
2024-01-09T21:18:40.725Z,57.60
2024-01-09T21:23:43.765Z,54.00
2024-01-09T21:28:46.739Z,52.40
2024-01-09T21:33:51.084Z,52.80
2024-01-09T21:38:53.889Z,52.00
2024-01-09T21:43:56.842Z,50.20
2024-01-09T21:49:01.251Z,54.20
2024-01-09T21:54:04.424Z,53.80
2024-01-09T21:59:07.320Z,54.40
2024-01-09T22:04:11.724Z,50.80
2024-01-09T22:09:14.680Z,53.40
2024-01-09T22:14:17.775Z,47.80
2024-01-09T22:19:22.197Z,52.00
2024-01-09T22:24:25.137Z,49.80
2024-01-09T22:29:28.037Z,51.20
2024-01-09T22:34:32.443Z,50.60
2024-01-09T22:39:35.266Z,53.00
2024-01-09T22:44:38.076Z,48.80
2024-01-09T22:49:42.410Z,47.60
2024-01-09T22:54:47.228Z,48.60
2024-01-09T22:59:50.563Z,43.80
2024-01-09T23:04:54.737Z,50.60
2024-01-09T23:09:57.668Z,46.40
2024-01-09T23:15:00.561Z,49.20
2024-01-09T23:20:05.923Z,47.20
2024-01-09T23:25:12.524Z,50.00
2024-01-09T23:30:15.935Z,48.60
2024-01-09T23:35:21.608Z,46.80
2024-01-09T23:40:24.653Z,49.40
2024-01-09T23:45:27.508Z,48.60
2024-01-09T23:50:31.777Z,42.20
2024-01-09T23:55:34.679Z,46.40
